Time;durP1;ratioP1;P1;durP2;ratioP2;P2;SDS_P1;SDS_P2;PMS_P1;PMS_P2;Temp;Humidity;BMP_temperature;BMP_pressure;BME280_temperature;BME280_humidity;BME280_pressure;Samples;Min_cycle;Max_cycle;Signal;HPM_P1;HPM_P2
2022/11/09 00:00:09;;;;;;;10.90;9.57;;;;;;;;;;5070803;28;20958;-76
2022/11/09 00:02:37;;;;;;;11.20;8.90;;;;;;;;;;5070543;28;20526;-76
2022/11/09 00:05:04;;;;;;;12.47;9.40;;;;;;;;;;5070955;28;20472;-75
2022/11/09 00:07:31;;;;;;;9.57;8.60;;;;;;;;;;5070928;28;21014;-75
2022/11/09 00:09:59;;;;;;;10.93;8.73;;;;;;;;;;5070425;28;20449;-74
2022/11/09 00:12:26;;;;;;;9.80;8.90;;;;;;;;;;5077044;28;20457;-76
2022/11/09 00:14:53;;;;;;;12.20;9.50;;;;;;;;;;5078284;28;20965;-75
2022/11/09 00:17:20;;;;;;;10.77;9.67;;;;;;;;;;5075481;28;20437;-76
2022/11/09 00:19:48;;;;;;;10.27;9.10;;;;;;;;;;5076946;28;20496;-75
2022/11/09 00:22:15;;;;;;;12.50;8.57;;;;;;;;;;5077606;28;20975;-75
2022/11/09 00:24:42;;;;;;;11.30;9.40;;;;;;;;;;5070481;28;20476;-75
2022/11/09 00:27:10;;;;;;;10.17;9.17;;;;;;;;;;5070801;28;20904;-76
2022/11/09 00:29:37;;;;;;;11.60;9.00;;;;;;;;;;5070398;28;20889;-75
2022/11/09 00:32:04;;;;;;;10.17;8.97;;;;;;;;;;5070347;28;20449;-74
2022/11/09 00:34:31;;;;;;;10.43;9.40;;;;;;;;;;5070157;28;20444;-75
2022/11/09 00:36:58;;;;;;;10.60;8.67;;;;;;;;;;5070321;28;20448;-75
2022/11/09 00:39:25;;;;;;;10.97;9.00;;;;;;;;;;5070045;28;20800;-75
2022/11/09 00:41:52;;;;;;;12.23;9.20;;;;;;;;;;5070337;28;20459;-75
2022/11/09 00:44:21;;;;;;;12.23;8.50;;;;;;;;;;5070494;28;20481;-75
2022/11/09 00:46:48;;;;;;;10.27;9.27;;;;;;;;;;5070683;28;20952;-75
2022/11/09 00:49:15;;;;;;;11.03;8.43;;;;;;;;;;5070622;28;20472;-75
2022/11/09 00:51:42;;;;;;;8.50;7.60;;;;;;;;;;5070755;28;20463;-75
2022/11/09 00:54:09;;;;;;;8.97;6.33;;;;;;;;;;5070156;28;20452;-76
2022/11/09 00:56:36;;;;;;;8.27;7.40;;;;;;;;;;5070509;28;20456;-75
2022/11/09 00:59:03;;;;;;;4.60;4.30;;;;;;;;;;5070269;28;20447;-76
2022/11/09 01:01:32;;;;;;;5.53;5.03;;;;;;;;;;5070326;28;20888;-75
2022/11/09 01:03:59;;;;;;;8.37;6.17;;;;;;;;;;5069983;28;20488;-75
2022/11/09 01:06:26;;;;;;;6.07;5.47;;;;;;;;;;5070446;28;20453;-74
2022/11/09 01:08:54;;;;;;;7.77;6.40;;;;;;;;;;5070233;28;20448;-75
2022/11/09 01:11:22;;;;;;;6.83;6.23;;;;;;;;;;5070288;28;20944;-75
2022/11/09 01:13:49;;;;;;;7.40;6.80;;;;;;;;;;5070163;28;20465;-75
2022/11/09 01:16:17;;;;;;;4.73;4.43;;;;;;;;;;5070281;28;20960;-75
2022/11/09 01:18:45;;;;;;;5.73;4.70;;;;;;;;;;5069823;28;20445;-74
2022/11/09 01:21:14;;;;;;;5.70;5.13;;;;;;;;;;5070275;28;20535;-74
2022/11/09 01:23:42;;;;;;;5.00;4.60;;;;;;;;;;5069553;28;20477;-75
2022/11/09 01:26:10;;;;;;;6.60;6.03;;;;;;;;;;5070108;28;20901;-75
2022/11/09 01:28:38;;;;;;;4.77;4.37;;;;;;;;;;5070455;28;20912;-75
2022/11/09 01:31:06;;;;;;;4.40;4.00;;;;;;;;;;5070097;28;20802;-75
2022/11/09 01:33:34;;;;;;;4.43;4.13;;;;;;;;;;5069647;28;20479;-76
2022/11/09 01:36:05;;;;;;;5.40;4.90;;;;;;;;;;5069991;28;20445;-75
2022/11/09 01:38:33;;;;;;;7.33;5.30;;;;;;;;;;5069644;28;20441;-75
2022/11/09 01:41:00;;;;;;;5.83;5.33;;;;;;;;;;5071508;28;20441;-76
2022/11/09 01:43:27;;;;;;;5.80;5.30;;;;;;;;;;5070502;28;20461;-77
2022/11/09 01:45:55;;;;;;;5.77;5.23;;;;;;;;;;5070424;28;20492;-74
2022/11/09 01:48:26;;;;;;;5.17;4.77;;;;;;;;;;5069877;28;20440;-77
2022/11/09 01:50:56;;;;;;;5.87;3.87;;;;;;;;;;5070626;28;20449;-75
2022/11/09 01:53:26;;;;;;;4.27;3.90;;;;;;;;;;5070572;28;20463;-78
2022/11/09 01:55:55;;;;;;;4.80;4.40;;;;;;;;;;5073312;28;20432;-77
2022/11/09 01:58:23;;;;;;;4.37;3.97;;;;;;;;;;5071091;28;20448;-77
2022/11/09 02:00:51;;;;;;;4.60;4.23;;;;;;;;;;5070126;28;20452;-77
2022/11/09 02:03:21;;;;;;;4.07;3.77;;;;;;;;;;5069639;28;20465;-76
2022/11/09 02:05:48;;;;;;;5.00;4.53;;;;;;;;;;5070105;28;20860;-77
2022/11/09 02:08:17;;;;;;;5.73;5.00;;;;;;;;;;5070338;28;20452;-76
2022/11/09 02:10:47;;;;;;;5.43;4.37;;;;;;;;;;5071538;28;20440;-76
2022/11/09 02:13:17;;;;;;;4.97;4.57;;;;;;;;;;5062507;28;20475;-74
2022/11/09 02:15:44;;;;;;;5.30;4.90;;;;;;;;;;5053614;28;20442;-75
2022/11/09 02:18:11;;;;;;;6.67;4.13;;;;;;;;;;5071980;28;20441;-74
2022/11/09 02:20:46;;;;;;;5.10;4.70;;;;;;;;;;5073307;28;20436;-75
2022/11/09 02:23:14;;;;;;;5.30;4.67;;;;;;;;;;5072540;28;21010;-75
2022/11/09 02:25:41;;;;;;;4.73;4.33;;;;;;;;;;5073243;28;20483;-75
2022/11/09 02:28:08;;;;;;;4.30;4.00;;;;;;;;;;5073708;28;20444;-75
2022/11/09 02:30:36;;;;;;;4.10;3.77;;;;;;;;;;5091766;28;20467;-74
2022/11/09 02:33:03;;;;;;;6.33;5.77;;;;;;;;;;5095813;28;20536;-74
2022/11/09 02:35:30;;;;;;;7.50;6.80;;;;;;;;;;5089951;28;20436;-75
2022/11/09 02:37:58;;;;;;;8.30;7.50;;;;;;;;;;5076458;28;20436;-75
2022/11/09 02:40:31;;;;;;;7.90;7.20;;;;;;;;;;5073684;28;20955;-75
2022/11/09 02:42:58;;;;;;;8.23;6.83;;;;;;;;;;5072856;28;20468;-75
2022/11/09 02:45:25;;;;;;;6.60;5.90;;;;;;;;;;5073343;28;20472;-74
2022/11/09 02:47:52;;;;;;;6.07;5.50;;;;;;;;;;5073213;28;20445;-75
2022/11/09 02:50:20;;;;;;;7.43;6.60;;;;;;;;;;5073130;28;20445;-76
2022/11/09 02:52:47;;;;;;;7.70;6.90;;;;;;;;;;5073672;28;20464;-75
2022/11/09 02:55:15;;;;;;;7.20;6.50;;;;;;;;;;5074572;28;20792;-75
2022/11/09 02:57:42;;;;;;;6.43;5.83;;;;;;;;;;5075152;28;20444;-75
2022/11/09 03:00:10;;;;;;;6.67;5.07;;;;;;;;;;5073853;28;20440;-75
2022/11/09 03:02:37;;;;;;;4.60;4.30;;;;;;;;;;5072229;28;20465;-74
2022/11/09 03:05:05;;;;;;;4.97;4.57;;;;;;;;;;5072699;28;20484;-74
2022/11/09 03:07:32;;;;;;;12.50;9.83;;;;;;;;;;5072539;28;20437;-75
2022/11/09 03:09:59;;;;;;;10.73;9.73;;;;;;;;;;5074298;28;20479;-75
2022/11/09 03:12:30;;;;;;;9.00;8.20;;;;;;;;;;5071357;28;20973;-75
2022/11/09 03:14:57;;;;;;;12.90;9.07;;;;;;;;;;5055319;28;20430;-76
2022/11/09 03:17:25;;;;;;;14.57;9.47;;;;;;;;;;5056193;28;20448;-75
2022/11/09 03:19:52;;;;;;;6.40;5.80;;;;;;;;;;5054958;28;20441;-75
2022/11/09 03:22:19;;;;;;;14.80;6.40;;;;;;;;;;5053236;28;20462;-75
2022/11/09 03:24:46;;;;;;;7.03;6.23;;;;;;;;;;5051724;28;20506;-74
2022/11/09 03:27:13;;;;;;;4.90;4.40;;;;;;;;;;5052202;28;20458;-75
2022/11/09 03:29:42;;;;;;;4.07;3.87;;;;;;;;;;5052461;28;20453;-75
2022/11/09 03:32:09;;;;;;;4.17;3.80;;;;;;;;;;5052009;28;20945;-74
2022/11/09 03:34:37;;;;;;;4.87;4.40;;;;;;;;;;5051881;28;20442;-74
2022/11/09 03:37:04;;;;;;;5.07;4.60;;;;;;;;;;5065379;28;20437;-74
2022/11/09 03:39:31;;;;;;;4.67;4.20;;;;;;;;;;5072363;28;20441;-74
2022/11/09 03:41:58;;;;;;;6.90;4.17;;;;;;;;;;5071564;28;20444;-75
2022/11/09 03:44:26;;;;;;;5.73;4.70;;;;;;;;;;5071501;28;20440;-75
2022/11/09 03:46:54;;;;;;;6.03;4.90;;;;;;;;;;5071900;28;20441;-76
2022/11/09 03:49:22;;;;;;;4.67;4.27;;;;;;;;;;5072078;28;20458;-76
2022/11/09 03:51:50;;;;;;;4.80;4.30;;;;;;;;;;5072050;28;21013;-75
2022/11/09 03:54:17;;;;;;;5.23;4.83;;;;;;;;;;5071324;28;20461;-75
2022/11/09 03:56:44;;;;;;;4.67;4.27;;;;;;;;;;5070788;28;20444;-75
2022/11/09 03:59:11;;;;;;;4.70;4.30;;;;;;;;;;5071488;28;20436;-74
2022/11/09 04:01:38;;;;;;;5.10;4.60;;;;;;;;;;5071602;28;20452;-74
2022/11/09 04:04:06;;;;;;;6.10;4.50;;;;;;;;;;5071096;28;20468;-75
2022/11/09 04:06:34;;;;;;;5.70;5.27;;;;;;;;;;5071310;28;20996;-75
2022/11/09 04:09:01;;;;;;;7.43;5.23;;;;;;;;;;5071731;28;20444;-74
2022/11/09 04:11:28;;;;;;;6.43;5.20;;;;;;;;;;5071759;28;20436;-75
2022/11/09 04:13:55;;;;;;;5.47;4.97;;;;;;;;;;5070990;28;20464;-75
2022/11/09 04:16:22;;;;;;;6.90;5.80;;;;;;;;;;5071346;28;20437;-75
2022/11/09 04:18:49;;;;;;;7.13;6.53;;;;;;;;;;5071144;28;20765;-74
2022/11/09 04:21:17;;;;;;;8.23;7.47;;;;;;;;;;5070845;28;20814;-76
2022/11/09 04:23:44;;;;;;;9.20;8.10;;;;;;;;;;5070472;28;20473;-76
2022/11/09 04:26:11;;;;;;;8.20;7.40;;;;;;;;;;5071031;28;20476;-75
2022/11/09 04:28:38;;;;;;;7.73;6.93;;;;;;;;;;5070982;28;20452;-75
2022/11/09 04:31:06;;;;;;;7.50;6.83;;;;;;;;;;5071218;28;20448;-76
2022/11/09 04:33:33;;;;;;;7.00;6.40;;;;;;;;;;5069928;28;21090;-74
2022/11/09 04:36:03;;;;;;;7.70;7.00;;;;;;;;;;5070618;28;20800;-75
2022/11/09 04:38:32;;;;;;;8.03;7.20;;;;;;;;;;5070503;28;20445;-74
2022/11/09 04:41:02;;;;;;;7.93;7.23;;;;;;;;;;5070702;28;20445;-74
2022/11/09 04:43:29;;;;;;;8.83;8.03;;;;;;;;;;5070834;28;20897;-74
2022/11/09 04:45:59;;;;;;;10.00;9.00;;;;;;;;;;5070723;28;20507;-75
2022/11/09 04:48:26;;;;;;;9.73;8.80;;;;;;;;;;5070872;28;20429;-74
2022/11/09 04:50:53;;;;;;;10.53;9.30;;;;;;;;;;5070506;28;20445;-75
2022/11/09 04:53:20;;;;;;;11.03;9.93;;;;;;;;;;5070293;28;20479;-75
2022/11/09 04:55:49;;;;;;;10.30;9.40;;;;;;;;;;5070758;28;20436;-75
2022/11/09 04:58:16;;;;;;;18.57;10.87;;;;;;;;;;5074194;28;20445;-75
2022/11/09 05:00:43;;;;;;;11.27;10.20;;;;;;;;;;5075338;28;20804;-75
2022/11/09 05:03:10;;;;;;;12.30;10.67;;;;;;;;;;5069525;28;20964;-74
2022/11/09 05:05:38;;;;;;;12.13;10.97;;;;;;;;;;5070038;28;20499;-74
2022/11/09 05:08:06;;;;;;;13.60;12.07;;;;;;;;;;5069942;28;20496;-74
2022/11/09 05:10:33;;;;;;;12.13;11.10;;;;;;;;;;5070150;28;20471;-75
2022/11/09 05:13:03;;;;;;;12.70;11.47;;;;;;;;;;5061055;28;20469;-74
2022/11/09 05:15:30;;;;;;;13.50;12.20;;;;;;;;;;5049983;28;20429;-75
2022/11/09 05:17:57;;;;;;;14.43;12.20;;;;;;;;;;5050470;28;20448;-75
2022/11/09 05:20:25;;;;;;;13.90;12.37;;;;;;;;;;5049847;28;20441;-75
2022/11/09 05:25:36;;;;;;;12.73;11.23;;;;;;;;;;5049920;28;20558;-75
2022/11/09 05:28:05;;;;;;;13.17;11.70;;;;;;;;;;5049782;28;20441;-75
2022/11/09 05:30:32;;;;;;;13.37;11.97;;;;;;;;;;5050202;28;20492;-74
2022/11/09 05:32:59;;;;;;;12.10;10.90;;;;;;;;;;5049402;28;20476;-75
2022/11/09 05:35:26;;;;;;;11.93;10.70;;;;;;;;;;5049450;28;20441;-75
2022/11/09 05:37:53;;;;;;;12.30;11.00;;;;;;;;;;5050469;28;20456;-75
2022/11/09 05:40:20;;;;;;;12.10;10.80;;;;;;;;;;5050231;28;20441;-74
2022/11/09 05:42:48;;;;;;;11.43;10.33;;;;;;;;;;5049798;28;20462;-76
2022/11/09 05:45:17;;;;;;;11.73;10.40;;;;;;;;;;5052793;28;20469;-75
2022/11/09 05:47:45;;;;;;;11.10;9.97;;;;;;;;;;5058770;28;20971;-74
2022/11/09 05:50:13;;;;;;;10.93;9.70;;;;;;;;;;5057552;28;20996;-75
2022/11/09 05:52:40;;;;;;;9.63;8.63;;;;;;;;;;5060443;28;20465;-75
2022/11/09 05:55:07;;;;;;;11.50;10.50;;;;;;;;;;5069975;28;20437;-75
2022/11/09 05:57:35;;;;;;;11.40;10.20;;;;;;;;;;5069356;28;20460;-75
2022/11/09 06:00:02;;;;;;;10.77;9.03;;;;;;;;;;5077396;28;20436;-74
2022/11/09 06:02:32;;;;;;;10.93;9.80;;;;;;;;;;5083402;28;20466;-74
2022/11/09 06:04:59;;;;;;;12.60;10.13;;;;;;;;;;5099429;28;20824;-74
2022/11/09 06:07:26;;;;;;;10.50;9.43;;;;;;;;;;5099551;28;20433;-73
2022/11/09 06:09:53;;;;;;;10.47;9.43;;;;;;;;;;5093506;28;20455;-75
2022/11/09 06:12:20;;;;;;;11.60;10.50;;;;;;;;;;5099259;28;20474;-74
2022/11/09 06:14:47;;;;;;;22.20;16.27;;;;;;;;;;5098491;28;20448;-74
2022/11/09 06:17:14;;;;;;;10.90;9.90;;;;;;;;;;5099123;28;20452;-74
2022/11/09 06:19:42;;;;;;;14.47;13.07;;;;;;;;;;5099339;28;20417;-75
2022/11/09 06:22:11;;;;;;;18.07;14.90;;;;;;;;;;5098300;28;20417;-74
2022/11/09 06:24:38;;;;;;;19.20;15.07;;;;;;;;;;5098446;28;20444;-74
2022/11/09 06:27:05;;;;;;;14.63;12.50;;;;;;;;;;5098588;28;20496;-74
2022/11/09 06:29:32;;;;;;;21.43;17.20;;;;;;;;;;5099123;28;20459;-74
2022/11/09 06:31:59;;;;;;;11.90;10.70;;;;;;;;;;5098768;28;20444;-74
2022/11/09 06:34:26;;;;;;;11.70;10.60;;;;;;;;;;5098418;28;20425;-74
2022/11/09 06:36:55;;;;;;;10.67;9.87;;;;;;;;;;5098686;28;20423;-75
2022/11/09 06:39:22;;;;;;;11.07;10.03;;;;;;;;;;5098563;28;20425;-75
2022/11/09 06:41:49;;;;;;;11.57;10.57;;;;;;;;;;5098486;28;20477;-74
2022/11/09 06:44:16;;;;;;;12.13;11.03;;;;;;;;;;5098166;28;20429;-75
2022/11/09 06:46:43;;;;;;;12.30;11.20;;;;;;;;;;5098231;28;20469;-76
2022/11/09 06:49:11;;;;;;;12.47;11.23;;;;;;;;;;5098618;28;20491;-74
2022/11/09 06:51:38;;;;;;;13.70;12.03;;;;;;;;;;5098596;28;20421;-75
2022/11/09 06:54:06;;;;;;;11.73;10.23;;;;;;;;;;5097958;28;20449;-75
2022/11/09 06:56:33;;;;;;;13.30;12.10;;;;;;;;;;5098049;28;20432;-75
2022/11/09 06:59:00;;;;;;;13.93;12.50;;;;;;;;;;5098320;28;20431;-73
2022/11/09 07:01:28;;;;;;;13.00;11.80;;;;;;;;;;5098341;28;20429;-74
2022/11/09 07:03:55;;;;;;;14.87;13.37;;;;;;;;;;5097723;28;20447;-74
2022/11/09 07:06:22;;;;;;;14.00;12.60;;;;;;;;;;5097866;28;20464;-74
2022/11/09 07:08:49;;;;;;;13.27;11.97;;;;;;;;;;5097966;28;20441;-74
2022/11/09 07:11:18;;;;;;;12.70;11.50;;;;;;;;;;5084508;28;20440;-75
2022/11/09 07:13:45;;;;;;;12.03;11.00;;;;;;;;;;5074903;28;20465;-74
2022/11/09 07:16:16;;;;;;;11.43;10.33;;;;;;;;;;5074718;28;20459;-75
2022/11/09 07:18:43;;;;;;;12.10;11.00;;;;;;;;;;5073698;28;20445;-76
2022/11/09 07:21:10;;;;;;;9.70;8.33;;;;;;;;;;5074069;28;20448;-75
2022/11/09 07:23:37;;;;;;;8.60;7.80;;;;;;;;;;5072864;28;20999;-75
2022/11/09 07:26:04;;;;;;;8.23;7.57;;;;;;;;;;5072339;28;20968;-74
2022/11/09 07:28:32;;;;;;;7.47;6.87;;;;;;;;;;5072252;28;20935;-76
2022/11/09 07:31:00;;;;;;;7.07;6.40;;;;;;;;;;5073178;28;20975;-75
2022/11/09 07:33:29;;;;;;;7.83;7.10;;;;;;;;;;5072186;28;20461;-75
2022/11/09 07:35:57;;;;;;;6.63;6.20;;;;;;;;;;5072717;28;20448;-75
2022/11/09 07:38:24;;;;;;;7.47;6.20;;;;;;;;;;5072480;28;20451;-75
2022/11/09 07:40:51;;;;;;;7.83;7.20;;;;;;;;;;5072725;28;20452;-75
2022/11/09 07:43:19;;;;;;;7.77;7.13;;;;;;;;;;5071883;28;20464;-75
2022/11/09 07:45:47;;;;;;;7.37;6.77;;;;;;;;;;5071980;28;20553;-77
2022/11/09 07:48:14;;;;;;;8.13;7.40;;;;;;;;;;5072419;28;20753;-76
2022/11/09 07:50:42;;;;;;;7.57;6.77;;;;;;;;;;5071731;28;20453;-76
2022/11/09 07:53:10;;;;;;;7.53;6.80;;;;;;;;;;5071776;28;20467;-75
2022/11/09 07:55:37;;;;;;;7.70;7.00;;;;;;;;;;5072873;28;20441;-75
2022/11/09 07:58:06;;;;;;;8.03;7.13;;;;;;;;;;5074832;28;20441;-76
2022/11/09 08:00:34;;;;;;;7.77;6.97;;;;;;;;;;5066559;28;20445;-75
2022/11/09 08:03:02;;;;;;;8.23;7.43;;;;;;;;;;5070883;28;20474;-76
2022/11/09 08:05:30;;;;;;;7.67;7.07;;;;;;;;;;5072089;28;20444;-75
2022/11/09 08:07:57;;;;;;;7.63;6.93;;;;;;;;;;5071624;28;20472;-75
2022/11/09 08:10:25;;;;;;;8.00;7.30;;;;;;;;;;5074608;28;20460;-76
2022/11/09 08:12:56;;;;;;;7.33;6.73;;;;;;;;;;5070797;28;20467;-75
2022/11/09 08:15:23;;;;;;;9.40;8.40;;;;;;;;;;5071475;28;20455;-75
2022/11/09 08:17:50;;;;;;;8.53;7.60;;;;;;;;;;5071338;28;20956;-75
2022/11/09 08:20:19;;;;;;;8.80;7.90;;;;;;;;;;5071458;28;20449;-75
2022/11/09 08:22:46;;;;;;;8.33;7.50;;;;;;;;;;5071437;28;20492;-75
2022/11/09 08:25:14;;;;;;;6.40;5.77;;;;;;;;;;5074815;28;20440;-75
2022/11/09 08:27:41;;;;;;;6.90;6.20;;;;;;;;;;5070964;28;20481;-75
2022/11/09 08:30:11;;;;;;;6.60;6.00;;;;;;;;;;5070852;28;20527;-75
2022/11/09 08:32:38;;;;;;;6.57;5.70;;;;;;;;;;5070793;28;20464;-75
2022/11/09 08:35:05;;;;;;;5.60;4.93;;;;;;;;;;5071401;28;20437;-74
2022/11/09 08:37:35;;;;;;;6.13;5.07;;;;;;;;;;5073224;28;20444;-76
2022/11/09 08:40:02;;;;;;;5.90;4.90;;;;;;;;;;5072897;28;20437;-77
2022/11/09 08:42:29;;;;;;;5.80;5.30;;;;;;;;;;5072504;28;20471;-75
2022/11/09 08:44:56;;;;;;;5.43;4.93;;;;;;;;;;5072279;28;20440;-76
2022/11/09 08:47:23;;;;;;;5.20;4.80;;;;;;;;;;5071180;28;20488;-76
2022/11/09 08:49:51;;;;;;;7.57;5.27;;;;;;;;;;5070907;28;20449;-76
2022/11/09 08:52:18;;;;;;;5.43;4.87;;;;;;;;;;5070713;28;20460;-74
2022/11/09 08:54:46;;;;;;;5.30;4.67;;;;;;;;;;5065446;28;20451;-75
2022/11/09 08:57:14;;;;;;;5.93;5.07;;;;;;;;;;5065474;28;20819;-75
2022/11/09 08:59:41;;;;;;;4.30;4.00;;;;;;;;;;5071863;28;20936;-74
2022/11/09 09:02:09;;;;;;;4.63;4.30;;;;;;;;;;5071959;28;20441;-75
2022/11/09 09:04:36;;;;;;;4.57;4.20;;;;;;;;;;5068031;28;20441;-76
2022/11/09 09:07:03;;;;;;;5.13;4.63;;;;;;;;;;5063994;28;20491;-76
2022/11/09 09:09:30;;;;;;;7.77;6.00;;;;;;;;;;5072154;28;20459;-74
2022/11/09 09:11:59;;;;;;;5.73;5.23;;;;;;;;;;5073628;28;20440;-75
2022/11/09 09:14:26;;;;;;;7.73;5.90;;;;;;;;;;5072458;28;20445;-76
2022/11/09 09:16:53;;;;;;;7.10;5.00;;;;;;;;;;5072644;28;20437;-75
2022/11/09 09:19:20;;;;;;;5.47;5.07;;;;;;;;;;5072321;28;20469;-75
2022/11/09 09:21:47;;;;;;;6.23;5.63;;;;;;;;;;5067275;28;20456;-75
2022/11/09 09:24:14;;;;;;;7.40;6.70;;;;;;;;;;5067840;28;20475;-75
2022/11/09 09:26:41;;;;;;;6.27;5.67;;;;;;;;;;5063813;28;20480;-75
2022/11/09 09:29:12;;;;;;;7.17;6.57;;;;;;;;;;5069690;28;20459;-75
2022/11/09 09:31:39;;;;;;;6.07;5.57;;;;;;;;;;5068233;28;20955;-76
2022/11/09 09:34:06;;;;;;;7.17;6.67;;;;;;;;;;5061351;28;20587;-75
2022/11/09 09:36:34;;;;;;;6.00;5.43;;;;;;;;;;5061142;28;20437;-75
2022/11/09 09:39:01;;;;;;;6.10;5.60;;;;;;;;;;5062100;28;20441;-75
2022/11/09 09:41:31;;;;;;;6.13;5.70;;;;;;;;;;5069158;28;20456;-75
2022/11/09 09:43:59;;;;;;;6.93;6.00;;;;;;;;;;5070025;28;20465;-74
2022/11/09 09:46:31;;;;;;;5.43;5.03;;;;;;;;;;5070084;28;20469;-76
2022/11/09 09:49:00;;;;;;;4.30;3.97;;;;;;;;;;5070644;28;20433;-75
2022/11/09 09:51:30;;;;;;;3.17;2.97;;;;;;;;;;5069692;28;20448;-74
2022/11/09 09:54:02;;;;;;;3.50;2.50;;;;;;;;;;5069024;28;20464;-76
2022/11/09 09:56:31;;;;;;;2.37;2.23;;;;;;;;;;5070129;28;20444;-75
2022/11/09 09:59:00;;;;;;;3.20;2.30;;;;;;;;;;5069914;28;20836;-76
2022/11/09 10:01:34;;;;;;;2.17;1.90;;;;;;;;;;5070538;28;20628;-76
2022/11/09 10:04:01;;;;;;;2.17;2.03;;;;;;;;;;5070822;28;20517;-75
2022/11/09 10:06:38;;;;;;;2.00;1.90;;;;;;;;;;5070479;28;20480;-76
2022/11/09 10:09:11;;;;;;;2.40;2.23;;;;;;;;;;5069992;28;20523;-76
2022/11/09 10:11:42;;;;;;;2.20;2.10;;;;;;;;;;5070337;28;20487;-75
2022/11/09 10:14:19;;;;;;;2.60;2.50;;;;;;;;;;5069757;28;20583;-75
2022/11/09 10:16:51;;;;;;;2.90;2.50;;;;;;;;;;5070405;28;20441;-75
2022/11/09 10:19:27;;;;;;;3.17;2.90;;;;;;;;;;5069951;28;20437;-75
2022/11/09 10:21:56;;;;;;;3.87;2.60;;;;;;;;;;5070381;28;20497;-75
2022/11/09 10:24:27;;;;;;;3.20;2.70;;;;;;;;;;5069392;28;20449;-75
2022/11/09 10:26:55;;;;;;;4.10;3.77;;;;;;;;;;5069717;28;20907;-75
2022/11/09 10:29:23;;;;;;;5.27;3.97;;;;;;;;;;5070452;28;20444;-76
2022/11/09 10:31:53;;;;;;;3.90;3.60;;;;;;;;;;5072123;28;20859;-77
2022/11/09 10:34:21;;;;;;;4.73;3.97;;;;;;;;;;5073454;28;20448;-76
2022/11/09 10:36:53;;;;;;;4.17;3.80;;;;;;;;;;5073547;28;20467;-76
2022/11/09 10:39:22;;;;;;;3.67;3.40;;;;;;;;;;5073167;28;20440;-75
2022/11/09 10:41:49;;;;;;;4.60;4.30;;;;;;;;;;5073692;28;20512;-76
2022/11/09 10:44:17;;;;;;;10.00;5.50;;;;;;;;;;5072668;28;20472;-76
2022/11/09 10:47:06;;;;;;;6.30;5.60;;;;;;;;;;5073211;28;20868;-75
2022/11/09 10:49:33;;;;;;;4.57;4.27;;;;;;;;;;5073234;28;20425;-76
2022/11/09 10:52:01;;;;;;;6.10;5.53;;;;;;;;;;5072726;28;20451;-76
2022/11/09 10:54:30;;;;;;;5.50;5.10;;;;;;;;;;5072624;28;20437;-76
2022/11/09 10:57:03;;;;;;;5.80;5.30;;;;;;;;;;5072803;28;20449;-76
2022/11/09 10:59:50;;;;;;;6.37;5.60;;;;;;;;;;5072474;28;20459;-75
2022/11/09 11:02:32;;;;;;;5.00;4.60;;;;;;;;;;5071542;28;20552;-76
2022/11/09 11:05:21;;;;;;;14.20;5.20;;;;;;;;;;5059545;28;20463;-75
2022/11/09 11:07:48;;;;;;;6.13;5.57;;;;;;;;;;5072319;28;20487;-76
2022/11/09 11:10:19;;;;;;;4.90;4.37;;;;;;;;;;5072078;28;20444;-76
2022/11/09 11:12:47;;;;;;;4.63;4.23;;;;;;;;;;5065838;28;20453;-76
2022/11/09 11:15:22;;;;;;;4.73;4.33;;;;;;;;;;5052311;28;20453;-76
2022/11/09 11:17:50;;;;;;;7.33;4.87;;;;;;;;;;5052410;28;20955;-75
2022/11/09 11:20:28;;;;;;;4.50;4.20;;;;;;;;;;5052428;28;20458;-75
2022/11/09 11:23:06;;;;;;;4.33;4.03;;;;;;;;;;5051860;28;20531;-75
2022/11/09 11:25:33;;;;;;;4.63;4.17;;;;;;;;;;5052266;28;20456;-77
2022/11/09 11:28:04;;;;;;;4.63;4.07;;;;;;;;;;5052450;28;20484;-76
2022/11/09 11:30:35;;;;;;;4.70;4.30;;;;;;;;;;5052177;28;20461;-75
2022/11/09 11:33:02;;;;;;;4.70;4.30;;;;;;;;;;5052179;28;20493;-76
2022/11/09 11:35:33;;;;;;;6.07;4.50;;;;;;;;;;5052094;28;21000;-76
2022/11/09 11:38:06;;;;;;;4.57;4.27;;;;;;;;;;5052291;28;20433;-76
2022/11/09 11:40:35;;;;;;;4.63;3.90;;;;;;;;;;5051934;28;20452;-76
2022/11/09 11:43:11;;;;;;;4.13;3.83;;;;;;;;;;5051850;28;20488;-75
2022/11/09 11:45:41;;;;;;;3.73;3.47;;;;;;;;;;5056792;28;20523;-75
2022/11/09 11:48:15;;;;;;;5.00;4.23;;;;;;;;;;5071221;28;20483;-77
2022/11/09 11:50:47;;;;;;;3.43;3.13;;;;;;;;;;5072524;28;20451;-76
2022/11/09 11:53:19;;;;;;;3.10;2.83;;;;;;;;;;5071808;28;20472;-76
2022/11/09 11:55:52;;;;;;;3.40;3.10;;;;;;;;;;5073771;28;20440;-75
2022/11/09 11:58:24;;;;;;;3.73;3.43;;;;;;;;;;5072981;28;20437;-76
2022/11/09 12:00:57;;;;;;;3.50;2.97;;;;;;;;;;5070502;28;20979;-76
2022/11/09 12:03:43;;;;;;;3.10;2.83;;;;;;;;;;5070039;28;20608;-76
2022/11/09 12:06:31;;;;;;;3.37;2.60;;;;;;;;;;5070412;28;20460;-75
2022/11/09 12:09:08;;;;;;;6.17;2.77;;;;;;;;;;5047382;28;20465;-76
2022/11/09 12:11:43;;;;;;;3.53;2.90;;;;;;;;;;5071737;28;20455;-75
2022/11/09 12:14:15;;;;;;;3.73;3.27;;;;;;;;;;5070405;28;20472;-77
2022/11/09 12:16:45;;;;;;;3.37;3.10;;;;;;;;;;5074510;28;20449;-76
2022/11/09 12:19:20;;;;;;;2.93;2.60;;;;;;;;;;5071258;28;20448;-76
2022/11/09 12:21:51;;;;;;;3.80;2.90;;;;;;;;;;5070638;28;20447;-75
2022/11/09 12:24:24;;;;;;;3.47;3.13;;;;;;;;;;5070124;28;20846;-76
2022/11/09 12:26:59;;;;;;;3.40;3.10;;;;;;;;;;5070136;28;20436;-75
2022/11/09 12:29:29;;;;;;;4.23;2.97;;;;;;;;;;5070645;28;20531;-76
2022/11/09 12:32:03;;;;;;;2.83;2.63;;;;;;;;;;5069631;28;20921;-76
2022/11/09 12:34:33;;;;;;;3.67;3.40;;;;;;;;;;5069530;28;20536;-75
2022/11/09 12:37:02;;;;;;;3.30;3.10;;;;;;;;;;5070267;28;20452;-77
2022/11/09 12:39:33;;;;;;;4.00;2.90;;;;;;;;;;5069947;28;20444;-76
2022/11/09 12:42:04;;;;;;;3.03;2.83;;;;;;;;;;5070156;28;20931;-76
2022/11/09 12:44:33;;;;;;;2.80;2.50;;;;;;;;;;5069383;28;20452;-76
2022/11/09 12:47:02;;;;;;;2.97;2.77;;;;;;;;;;5070018;28;20444;-76
2022/11/09 12:49:35;;;;;;;2.77;2.57;;;;;;;;;;5070045;28;20936;-76
2022/11/09 12:52:02;;;;;;;2.60;2.40;;;;;;;;;;5070052;28;20433;-76
2022/11/09 12:54:29;;;;;;;2.57;2.37;;;;;;;;;;5068918;28;20451;-76
2022/11/09 12:57:00;;;;;;;3.50;2.57;;;;;;;;;;5069978;28;20789;-75
2022/11/09 12:59:37;;;;;;;2.40;2.30;;;;;;;;;;5069982;28;20444;-79
2022/11/09 13:02:05;;;;;;;2.70;2.50;;;;;;;;;;5070199;28;20455;-77
2022/11/09 13:04:33;;;;;;;2.80;2.60;;;;;;;;;;5069494;28;20524;-76
2022/11/09 13:07:18;;;;;;;4.07;3.20;;;;;;;;;;5069165;28;20448;-77
2022/11/09 13:09:45;;;;;;;2.77;2.57;;;;;;;;;;5069755;28;20470;-76
2022/11/09 13:12:20;;;;;;;2.97;2.70;;;;;;;;;;5068049;28;20974;-75
2022/11/09 13:14:47;;;;;;;2.97;2.77;;;;;;;;;;5063155;28;21013;-76
2022/11/09 13:17:33;;;;;;;3.10;2.30;;;;;;;;;;5069459;28;20816;-75
2022/11/09 13:20:00;;;;;;;2.80;2.57;;;;;;;;;;5069796;28;21026;-77
2022/11/09 13:22:46;;;;;;;2.53;2.13;;;;;;;;;;5069562;28;20471;-76
2022/11/09 13:25:28;;;;;;;3.03;2.73;;;;;;;;;;5070247;28;20942;-75
2022/11/09 13:27:56;;;;;;;4.40;3.17;;;;;;;;;;5069620;28;20487;-75
2022/11/09 13:30:51;;;;;;;3.27;2.50;;;;;;;;;;5069534;28;20472;-75
2022/11/09 13:33:24;;;;;;;2.83;2.67;;;;;;;;;;5069834;28;20496;-76
2022/11/09 13:36:21;;;;;;;3.30;3.00;;;;;;;;;;5071279;28;20437;-76
2022/11/09 13:39:03;;;;;;;2.73;2.40;;;;;;;;;;5070763;28;20441;-75
2022/11/09 13:41:44;;;;;;;4.90;3.13;;;;;;;;;;5058201;28;20466;-76
2022/11/09 13:44:35;;;;;;;2.60;2.50;;;;;;;;;;5070484;28;20460;-74
2022/11/09 13:47:03;;;;;;;3.73;2.70;;;;;;;;;;5054832;28;20463;-75
2022/11/09 13:49:37;;;;;;;3.77;2.90;;;;;;;;;;5070192;28;20451;-76
2022/11/09 13:52:04;;;;;;;4.13;3.70;;;;;;;;;;5070350;28;20437;-76
2022/11/09 13:54:32;;;;;;;3.10;2.90;;;;;;;;;;5070425;28;20940;-75
2022/11/09 13:56:59;;;;;;;3.00;2.57;;;;;;;;;;5070579;28;20444;-76
2022/11/09 13:59:28;;;;;;;2.67;2.47;;;;;;;;;;5070913;28;20449;-76
2022/11/09 14:01:56;;;;;;;3.43;3.13;;;;;;;;;;5070472;28;20452;-75
2022/11/09 14:04:26;;;;;;;3.30;2.67;;;;;;;;;;5070160;28;20535;-76
2022/11/09 14:06:59;;;;;;;3.03;2.80;;;;;;;;;;5072797;28;20445;-75
2022/11/09 14:09:26;;;;;;;3.73;3.43;;;;;;;;;;5074188;28;20482;-75
2022/11/09 14:12:02;;;;;;;3.20;2.87;;;;;;;;;;5074444;28;20448;-75
2022/11/09 14:14:43;;;;;;;3.13;2.90;;;;;;;;;;5061516;28;20436;-75
2022/11/09 14:17:13;;;;;;;3.07;2.80;;;;;;;;;;5072790;28;20436;-74
2022/11/09 14:19:46;;;;;;;2.87;2.67;;;;;;;;;;5073430;28;20443;-74
2022/11/09 14:22:15;;;;;;;2.90;2.70;;;;;;;;;;5072119;28;20447;-76
2022/11/09 14:24:43;;;;;;;3.10;2.83;;;;;;;;;;5073366;28;20456;-76
2022/11/09 14:27:14;;;;;;;4.27;3.00;;;;;;;;;;5073792;28;20445;-76
2022/11/09 14:29:49;;;;;;;2.77;2.57;;;;;;;;;;5073931;28;20455;-75
2022/11/09 14:32:27;;;;;;;7.63;3.50;;;;;;;;;;5074000;28;20464;-75
2022/11/09 14:35:10;;;;;;;2.57;2.37;;;;;;;;;;5073581;28;20834;-75
2022/11/09 14:37:37;;;;;;;7.70;4.03;;;;;;;;;;5073560;28;20466;-74
2022/11/09 14:40:04;;;;;;;3.67;2.77;;;;;;;;;;5073907;28;20460;-75
2022/11/09 14:42:31;;;;;;;4.27;3.30;;;;;;;;;;5073533;28;20471;-75
2022/11/09 14:44:59;;;;;;;3.10;2.90;;;;;;;;;;5074088;28;20788;-75
2022/11/09 14:47:29;;;;;;;3.43;3.10;;;;;;;;;;5073482;28;20449;-75
2022/11/09 14:49:58;;;;;;;3.23;2.97;;;;;;;;;;5074277;28;20429;-75
2022/11/09 14:52:27;;;;;;;3.57;3.17;;;;;;;;;;5074159;28;20464;-75